Libertador General San Martin, Argentina
Current Conditions -  °F | °C
As of 5:00 PM on Thursday 29 Jan 2015 (Local Time) from SASJ Reporting Station
Broken Clouds Broken Clouds  
Wind Chill: 82°   Ceiling: 20000
Heat Index: 83°   Visibility: 6mi
Dew Point: 61°   Wind: 5mph
Humidity: 48%   Direction: 140°SE
Pressure: 30.03"   Gusts: NA
Location:  23.8°S, 64.8°W
Report Text: SASJ 292000Z 14004KT 050V200 9999FEW034TCU BKN200 28/16 Q1017
Loading
Personal Weather Stations






























Interactive Weather Map New forecast layout! Learn more

10-Day Weather Forecast

Advertisements
Track Severe Weather on mobile